AIQ4102 VTBS-VTCC
Flight info
| Callsign | AIQ4102 |
|---|---|
| Flight time | 1h 7m |
| Altitude | 36000 |
| Route | OLVUK1E OLVUK Y26 MARNI MARNI2B |
| Aircraft | A320/M-SDE3FGHIRWY/LB1 |
Departure
| Time | 2026-04-23 08:45 |
|---|---|
| Airport | Suvarnabhumi Airport (VTBS) |
Arrival
| Time | 2026-04-23 09:53 |
|---|---|
| Airport | Chiang Mai International Airport (VTCC) |
| Time | Latitude | Longitude | Altitude | Speed | Heading |
|---|---|---|---|---|---|
| 2026-04-23 08:06 | 13.69377 | 100.75566 | 13 ft | 0 kts | 284° |
| 2026-04-23 08:30 | 13.69374 | 100.75576 | 14 ft | 4 kts | 285° |
| 2026-04-23 08:30 | 13.69367 | 100.75602 | 14 ft | 4 kts | 285° |
| 2026-04-23 08:30 | 13.69361 | 100.75629 | 13 ft | 4 kts | 279° |
| 2026-04-23 08:31 | 13.69360 | 100.75655 | 13 ft | 4 kts | 243° |
| 2026-04-23 08:31 | 13.69372 | 100.75665 | 13 ft | 3 kts | 194° |
| 2026-04-23 08:31 | 13.69375 | 100.75666 | 13 ft | 0 kts | 194° |
| 2026-04-23 08:34 | 13.69367 | 100.75664 | 13 ft | 3 kts | 194° |
| 2026-04-23 08:34 | 13.69334 | 100.75655 | 13 ft | 7 kts | 194° |
| 2026-04-23 08:34 | 13.69277 | 100.75640 | 13 ft | 10 kts | 194° |
| 2026-04-23 08:35 | 13.69202 | 100.75624 | 13 ft | 12 kts | 178° |
| 2026-04-23 08:35 | 13.69150 | 100.75684 | 13 ft | 12 kts | 104° |
| 2026-04-23 08:35 | 13.69130 | 100.75763 | 13 ft | 10 kts | 113° |
| 2026-04-23 08:35 | 13.69074 | 100.75786 | 15 ft | 10 kts | 186° |
| 2026-04-23 08:36 | 13.68986 | 100.75763 | 13 ft | 16 kts | 194° |
| 2026-04-23 08:36 | 13.68874 | 100.75734 | 13 ft | 17 kts | 194° |
| 2026-04-23 08:36 | 13.68753 | 100.75702 | 13 ft | 19 kts | 194° |
| 2026-04-23 08:36 | 13.68623 | 100.75668 | 15 ft | 20 kts | 194° |
| 2026-04-23 08:37 | 13.68515 | 100.75640 | 13 ft | 12 kts | 195° |
| 2026-04-23 08:37 | 13.68476 | 100.75570 | 13 ft | 13 kts | 279° |
| 2026-04-23 08:37 | 13.68503 | 100.75464 | 13 ft | 18 kts | 284° |
| 2026-04-23 08:37 | 13.68536 | 100.75334 | 14 ft | 20 kts | 284° |
| 2026-04-23 08:38 | 13.68569 | 100.75200 | 14 ft | 21 kts | 285° |
| 2026-04-23 08:38 | 13.68607 | 100.75050 | 15 ft | 22 kts | 284° |
| 2026-04-23 08:38 | 13.68647 | 100.74890 | 13 ft | 24 kts | 284° |
| 2026-04-23 08:38 | 13.68680 | 100.74763 | 13 ft | 0 kts | 285° |
| 2026-04-23 08:40 | 13.68685 | 100.74743 | 13 ft | 7 kts | 284° |
| 2026-04-23 08:40 | 13.68705 | 100.74664 | 13 ft | 15 kts | 285° |
| 2026-04-23 08:40 | 13.68736 | 100.74536 | 14 ft | 20 kts | 284° |
| 2026-04-23 08:40 | 13.68772 | 100.74390 | 13 ft | 22 kts | 284° |
| 2026-04-23 08:41 | 13.68807 | 100.74254 | 14 ft | 15 kts | 285° |
| 2026-04-23 08:41 | 13.68884 | 100.74220 | 13 ft | 16 kts | 12° |
| 2026-04-23 08:41 | 13.69026 | 100.74258 | 15 ft | 27 kts | 14° |
| 2026-04-23 08:41 | 13.69224 | 100.74309 | 13 ft | 30 kts | 14° |
| 2026-04-23 08:42 | 13.69430 | 100.74363 | 13 ft | 30 kts | 15° |
| 2026-04-23 08:42 | 13.69635 | 100.74417 | 13 ft | 31 kts | 13° |
| 2026-04-23 08:42 | 13.69847 | 100.74471 | 13 ft | 32 kts | 14° |
| 2026-04-23 08:42 | 13.70058 | 100.74530 | 13 ft | 29 kts | 14° |
| 2026-04-23 08:43 | 13.70186 | 100.74542 | 14 ft | 14 kts | 322° |
| 2026-04-23 08:43 | 13.70220 | 100.74458 | 14 ft | 12 kts | 284° |
| 2026-04-23 08:43 | 13.70238 | 100.74383 | 14 ft | 10 kts | 283° |
| 2026-04-23 08:43 | 13.70248 | 100.74341 | 14 ft | 8 kts | 283° |
| 2026-04-23 08:44 | 13.70243 | 100.74291 | 16 ft | 8 kts | 230° |
| 2026-04-23 08:44 | 13.70105 | 100.74250 | 15 ft | 49 kts | 194° |
| 2026-04-23 08:44 | 13.69548 | 100.74103 | 10 ft | 113 kts | 194° |
| 2026-04-23 08:44 | 13.68621 | 100.73860 | 17 ft | 160 kts | 194° |
| 2026-04-23 08:45 | 13.67493 | 100.73563 | 550 ft | 165 kts | 194° |
| 2026-04-23 08:45 | 13.66362 | 100.73266 | 1204 ft | 172 kts | 194° |
| 2026-04-23 08:45 | 13.65145 | 100.72947 | 1520 ft | 191 kts | 194° |
| 2026-04-23 08:45 | 13.63775 | 100.72589 | 1795 ft | 215 kts | 194° |
| 2026-04-23 08:46 | 13.62241 | 100.72184 | 2159 ft | 239 kts | 194° |
| 2026-04-23 08:46 | 13.60570 | 100.71742 | 2701 ft | 255 kts | 194° |
| 2026-04-23 08:46 | 13.58827 | 100.71281 | 3479 ft | 262 kts | 194° |
| 2026-04-23 08:46 | 13.57073 | 100.70818 | 4264 ft | 266 kts | 194° |
| 2026-04-23 08:47 | 13.55262 | 100.70269 | 5071 ft | 270 kts | 205° |
| 2026-04-23 08:47 | 13.53831 | 100.69062 | 5808 ft | 276 kts | 235° |
| 2026-04-23 08:47 | 13.53189 | 100.67207 | 6557 ft | 283 kts | 266° |
| 2026-04-23 08:47 | 13.53472 | 100.65194 | 7314 ft | 288 kts | 283° |
| 2026-04-23 08:48 | 13.53975 | 100.63187 | 8087 ft | 292 kts | 284° |
| 2026-04-23 08:48 | 13.54526 | 100.61165 | 8816 ft | 296 kts | 290° |
| 2026-04-23 08:48 | 13.55575 | 100.59336 | 9501 ft | 301 kts | 311° |
| 2026-04-23 08:48 | 13.57216 | 100.57959 | 9984 ft | 315 kts | 332° |
| 2026-04-23 08:49 | 13.59365 | 100.57279 | 10173 ft | 335 kts | 356° |
| 2026-04-23 08:49 | 13.61727 | 100.57321 | 10637 ft | 344 kts | 3° |
| 2026-04-23 08:49 | 13.64141 | 100.57409 | 11274 ft | 349 kts | 2° |
| 2026-04-23 08:49 | 13.66579 | 100.57478 | 11953 ft | 352 kts | 2° |
| 2026-04-23 08:50 | 13.69031 | 100.57540 | 12648 ft | 355 kts | 2° |
| 2026-04-23 08:50 | 13.71508 | 100.57600 | 13288 ft | 357 kts | 2° |
| 2026-04-23 08:50 | 13.74008 | 100.57660 | 13899 ft | 361 kts | 2° |
| 2026-04-23 08:50 | 13.76526 | 100.57541 | 14476 ft | 365 kts | 352° |
| 2026-04-23 08:51 | 13.78986 | 100.56860 | 15058 ft | 369 kts | 338° |
| 2026-04-23 08:51 | 13.81264 | 100.55628 | 15627 ft | 372 kts | 328° |
| 2026-04-23 08:51 | 13.83474 | 100.54223 | 16194 ft | 375 kts | 328° |
| 2026-04-23 08:51 | 13.85698 | 100.52818 | 16755 ft | 377 kts | 329° |
| 2026-04-23 08:52 | 13.87946 | 100.51406 | 17303 ft | 380 kts | 329° |
| 2026-04-23 08:52 | 13.90210 | 100.49988 | 17838 ft | 382 kts | 329° |
| 2026-04-23 08:52 | 13.92462 | 100.48576 | 18337 ft | 385 kts | 329° |
| 2026-04-23 08:52 | 13.94852 | 100.47317 | 18830 ft | 388 kts | 338° |
| 2026-04-23 08:53 | 13.97423 | 100.46447 | 19291 ft | 390 kts | 343° |
| 2026-04-23 08:53 | 14.00033 | 100.45626 | 19739 ft | 394 kts | 343° |
| 2026-04-23 08:53 | 14.02664 | 100.44797 | 20187 ft | 397 kts | 343° |
| 2026-04-23 08:53 | 14.05313 | 100.43958 | 20618 ft | 400 kts | 343° |
| 2026-04-23 08:54 | 14.07975 | 100.43113 | 21036 ft | 403 kts | 343° |
| 2026-04-23 08:54 | 14.10661 | 100.42260 | 21446 ft | 405 kts | 343° |
| 2026-04-23 08:54 | 14.13366 | 100.41401 | 21828 ft | 408 kts | 343° |
| 2026-04-23 08:54 | 14.16093 | 100.40533 | 22206 ft | 411 kts | 343° |
| 2026-04-23 08:55 | 14.18836 | 100.39661 | 22598 ft | 414 kts | 343° |
| 2026-04-23 08:55 | 14.21593 | 100.38784 | 22972 ft | 416 kts | 343° |
| 2026-04-23 08:55 | 14.24369 | 100.37901 | 23314 ft | 419 kts | 343° |
| 2026-04-23 08:55 | 14.27164 | 100.37013 | 23649 ft | 422 kts | 343° |
| 2026-04-23 08:56 | 14.29976 | 100.36120 | 23987 ft | 424 kts | 343° |
| 2026-04-23 08:56 | 14.32805 | 100.35223 | 24308 ft | 426 kts | 343° |
| 2026-04-23 08:56 | 14.35649 | 100.34321 | 24654 ft | 429 kts | 343° |
| 2026-04-23 08:56 | 14.38505 | 100.33412 | 24979 ft | 431 kts | 343° |
| 2026-04-23 08:57 | 14.41374 | 100.32497 | 25316 ft | 432 kts | 343° |
| 2026-04-23 08:57 | 14.44261 | 100.31578 | 25649 ft | 434 kts | 343° |
| 2026-04-23 08:57 | 14.47102 | 100.30531 | 25967 ft | 436 kts | 335° |
| 2026-04-23 08:57 | 14.49837 | 100.29167 | 26281 ft | 437 kts | 334° |
| 2026-04-23 08:58 | 14.52541 | 100.27805 | 26598 ft | 439 kts | 334° |
| 2026-04-23 08:58 | 14.55289 | 100.26420 | 26902 ft | 440 kts | 334° |
| 2026-04-23 08:58 | 14.58047 | 100.25031 | 27201 ft | 442 kts | 334° |
| 2026-04-23 08:58 | 14.60812 | 100.23636 | 27499 ft | 443 kts | 334° |
| 2026-04-23 08:59 | 14.63585 | 100.22235 | 27779 ft | 445 kts | 334° |
| 2026-04-23 08:59 | 14.66411 | 100.20926 | 28072 ft | 446 kts | 340° |
| 2026-04-23 08:59 | 14.69364 | 100.19925 | 28350 ft | 448 kts | 342° |
| 2026-04-23 08:59 | 14.72334 | 100.18940 | 28624 ft | 449 kts | 342° |
| 2026-04-23 09:00 | 14.75321 | 100.17950 | 28907 ft | 450 kts | 342° |
| 2026-04-23 09:00 | 14.78304 | 100.16964 | 29178 ft | 452 kts | 342° |
| 2026-04-23 09:00 | 14.81300 | 100.15971 | 29453 ft | 453 kts | 342° |
| 2026-04-23 09:00 | 14.84306 | 100.14969 | 29704 ft | 455 kts | 341° |
| 2026-04-23 09:01 | 14.87319 | 100.13963 | 29966 ft | 456 kts | 341° |
| 2026-04-23 09:01 | 14.90340 | 100.12953 | 30224 ft | 457 kts | 341° |
| 2026-04-23 09:01 | 14.93370 | 100.11941 | 30468 ft | 458 kts | 341° |
| 2026-04-23 09:01 | 14.96411 | 100.10929 | 30695 ft | 460 kts | 341° |
| 2026-04-23 09:02 | 14.99461 | 100.09915 | 30955 ft | 460 kts | 341° |
| 2026-04-23 09:02 | 15.02507 | 100.08901 | 31283 ft | 459 kts | 341° |
| 2026-04-23 09:02 | 15.05547 | 100.07888 | 31606 ft | 458 kts | 341° |
| 2026-04-23 09:02 | 15.08580 | 100.06878 | 31921 ft | 458 kts | 341° |
| 2026-04-23 09:03 | 15.11604 | 100.05873 | 32236 ft | 457 kts | 341° |
| 2026-04-23 09:03 | 15.14632 | 100.04868 | 32550 ft | 457 kts | 341° |
| 2026-04-23 09:03 | 15.17661 | 100.03858 | 32867 ft | 456 kts | 341° |
| 2026-04-23 09:03 | 15.20641 | 100.02862 | 33178 ft | 456 kts | 341° |
| 2026-04-23 09:04 | 15.23656 | 100.01849 | 33480 ft | 455 kts | 340° |
| 2026-04-23 09:04 | 15.26668 | 100.00837 | 33781 ft | 455 kts | 340° |
| 2026-04-23 09:04 | 15.29679 | 99.99829 | 34068 ft | 455 kts | 340° |
| 2026-04-23 09:04 | 15.32688 | 99.98824 | 34350 ft | 454 kts | 340° |
| 2026-04-23 09:05 | 15.35689 | 99.97827 | 34621 ft | 454 kts | 340° |
| 2026-04-23 09:05 | 15.38696 | 99.96827 | 34862 ft | 454 kts | 340° |
| 2026-04-23 09:05 | 15.41708 | 99.95823 | 35103 ft | 454 kts | 340° |
| 2026-04-23 09:05 | 15.44705 | 99.94823 | 35334 ft | 454 kts | 340° |
| 2026-04-23 09:06 | 15.47709 | 99.93818 | 35564 ft | 454 kts | 340° |
| 2026-04-23 09:06 | 15.50714 | 99.92809 | 35693 ft | 454 kts | 340° |
| 2026-04-23 09:06 | 15.56677 | 99.90804 | 35719 ft | 449 kts | 340° |
| 2026-04-23 09:07 | 15.62617 | 99.88821 | 35714 ft | 448 kts | 340° |
| 2026-04-23 09:07 | 15.68540 | 99.86840 | 35710 ft | 447 kts | 340° |
| 2026-04-23 09:08 | 15.74463 | 99.84848 | 35710 ft | 447 kts | 340° |
| 2026-04-23 09:08 | 15.80389 | 99.82858 | 35711 ft | 448 kts | 340° |
| 2026-04-23 09:09 | 15.86323 | 99.80864 | 35714 ft | 448 kts | 340° |
| 2026-04-23 09:09 | 15.92249 | 99.78875 | 35719 ft | 448 kts | 340° |
| 2026-04-23 09:10 | 16.01142 | 99.75883 | 35722 ft | 448 kts | 340° |
| 2026-04-23 09:11 | 16.07035 | 99.73901 | 35727 ft | 448 kts | 340° |
| 2026-04-23 09:11 | 16.12966 | 99.71907 | 35729 ft | 448 kts | 340° |
| 2026-04-23 09:12 | 16.18886 | 99.69910 | 35726 ft | 447 kts | 340° |
| 2026-04-23 09:12 | 16.24815 | 99.67913 | 35728 ft | 447 kts | 340° |
| 2026-04-23 09:13 | 16.30729 | 99.65916 | 35727 ft | 447 kts | 340° |
| 2026-04-23 09:13 | 16.36648 | 99.63913 | 35728 ft | 447 kts | 340° |
| 2026-04-23 09:14 | 16.42572 | 99.61916 | 35732 ft | 447 kts | 340° |
| 2026-04-23 09:14 | 16.48498 | 99.59925 | 35734 ft | 447 kts | 340° |
| 2026-04-23 09:15 | 16.54414 | 99.57928 | 35732 ft | 446 kts | 340° |
| 2026-04-23 09:15 | 16.60321 | 99.55930 | 35732 ft | 446 kts | 340° |
| 2026-04-23 09:16 | 16.66217 | 99.53931 | 35733 ft | 446 kts | 340° |
| 2026-04-23 09:16 | 16.72113 | 99.51932 | 35731 ft | 445 kts | 340° |
| 2026-04-23 09:17 | 16.77965 | 99.49952 | 35730 ft | 445 kts | 339° |
| 2026-04-23 09:17 | 16.83849 | 99.47955 | 35728 ft | 444 kts | 339° |
| 2026-04-23 09:18 | 16.89729 | 99.45958 | 35727 ft | 444 kts | 339° |
| 2026-04-23 09:18 | 16.95602 | 99.43965 | 35725 ft | 444 kts | 339° |
| 2026-04-23 09:19 | 17.01479 | 99.41975 | 35725 ft | 444 kts | 339° |
| 2026-04-23 09:19 | 17.07347 | 99.39981 | 35725 ft | 443 kts | 339° |
| 2026-04-23 09:20 | 17.13207 | 99.37986 | 35725 ft | 443 kts | 339° |
| 2026-04-23 09:20 | 17.19070 | 99.35993 | 35727 ft | 443 kts | 339° |
| 2026-04-23 09:21 | 17.24929 | 99.33998 | 35727 ft | 442 kts | 339° |
| 2026-04-23 09:21 | 17.30779 | 99.32001 | 35720 ft | 442 kts | 339° |
| 2026-04-23 09:22 | 17.36623 | 99.30009 | 35493 ft | 442 kts | 339° |
| 2026-04-23 09:22 | 17.39545 | 99.29017 | 35247 ft | 441 kts | 339° |
| 2026-04-23 09:22 | 17.42467 | 99.28024 | 35000 ft | 439 kts | 339° |
| 2026-04-23 09:22 | 17.45366 | 99.27042 | 34745 ft | 436 kts | 339° |
| 2026-04-23 09:23 | 17.48271 | 99.26158 | 34495 ft | 435 kts | 341° |
| 2026-04-23 09:23 | 17.51161 | 99.25395 | 34037 ft | 432 kts | 343° |
| 2026-04-23 09:23 | 17.54081 | 99.24702 | 33498 ft | 430 kts | 344° |
| 2026-04-23 09:23 | 17.56993 | 99.24040 | 32961 ft | 427 kts | 344° |
| 2026-04-23 09:24 | 17.59886 | 99.23374 | 32441 ft | 424 kts | 344° |
| 2026-04-23 09:24 | 17.62756 | 99.22694 | 31913 ft | 421 kts | 343° |
| 2026-04-23 09:24 | 17.65594 | 99.22002 | 31406 ft | 418 kts | 343° |
| 2026-04-23 09:24 | 17.68419 | 99.21294 | 30899 ft | 415 kts | 343° |
| 2026-04-23 09:25 | 17.71207 | 99.20581 | 30397 ft | 412 kts | 343° |
| 2026-04-23 09:25 | 17.73977 | 99.19870 | 29904 ft | 408 kts | 343° |
| 2026-04-23 09:25 | 17.76726 | 99.19170 | 29423 ft | 405 kts | 343° |
| 2026-04-23 09:25 | 17.79451 | 99.18481 | 28952 ft | 401 kts | 343° |
| 2026-04-23 09:26 | 17.82157 | 99.17800 | 28484 ft | 397 kts | 343° |
| 2026-04-23 09:26 | 17.84822 | 99.17130 | 28040 ft | 393 kts | 343° |
| 2026-04-23 09:26 | 17.87466 | 99.16466 | 27598 ft | 389 kts | 343° |
| 2026-04-23 09:26 | 17.90084 | 99.15807 | 27159 ft | 385 kts | 343° |
| 2026-04-23 09:27 | 17.92676 | 99.15155 | 26715 ft | 381 kts | 343° |
| 2026-04-23 09:27 | 17.95244 | 99.14512 | 26281 ft | 377 kts | 343° |
| 2026-04-23 09:27 | 17.97787 | 99.13873 | 25843 ft | 374 kts | 343° |
| 2026-04-23 09:27 | 18.00312 | 99.13239 | 25399 ft | 371 kts | 343° |
| 2026-04-23 09:28 | 18.02784 | 99.12618 | 24955 ft | 369 kts | 343° |
| 2026-04-23 09:28 | 18.05269 | 99.11990 | 24502 ft | 366 kts | 342° |
| 2026-04-23 09:28 | 18.07739 | 99.11365 | 24034 ft | 364 kts | 343° |
| 2026-04-23 09:28 | 18.10197 | 99.10743 | 23572 ft | 362 kts | 343° |
| 2026-04-23 09:29 | 18.12657 | 99.10185 | 23110 ft | 362 kts | 349° |
| 2026-04-23 09:29 | 18.15181 | 99.10086 | 22653 ft | 365 kts | 1° |
| 2026-04-23 09:29 | 18.17692 | 99.10518 | 22185 ft | 367 kts | 10° |
| 2026-04-23 09:29 | 18.20174 | 99.11133 | 21718 ft | 366 kts | 10° |
| 2026-04-23 09:30 | 18.22648 | 99.11743 | 21258 ft | 366 kts | 9° |
| 2026-04-23 09:30 | 18.25128 | 99.12350 | 20801 ft | 365 kts | 9° |
| 2026-04-23 09:30 | 18.27594 | 99.12955 | 20346 ft | 364 kts | 10° |
| 2026-04-23 09:30 | 18.30053 | 99.13559 | 19894 ft | 363 kts | 10° |
| 2026-04-23 09:31 | 18.32507 | 99.14164 | 19442 ft | 361 kts | 10° |
| 2026-04-23 09:31 | 18.34952 | 99.14769 | 18994 ft | 360 kts | 10° |
| 2026-04-23 09:31 | 18.37389 | 99.15373 | 18544 ft | 359 kts | 10° |
| 2026-04-23 09:31 | 18.39821 | 99.15974 | 18107 ft | 359 kts | 10° |
| 2026-04-23 09:32 | 18.42246 | 99.16572 | 17668 ft | 357 kts | 10° |
| 2026-04-23 09:32 | 18.44663 | 99.17166 | 17241 ft | 356 kts | 10° |
| 2026-04-23 09:32 | 18.47068 | 99.17757 | 16830 ft | 354 kts | 10° |
| 2026-04-23 09:32 | 18.49466 | 99.18351 | 16418 ft | 352 kts | 11° |
| 2026-04-23 09:33 | 18.51842 | 99.18939 | 16008 ft | 351 kts | 11° |
| 2026-04-23 09:33 | 18.54215 | 99.19525 | 15599 ft | 350 kts | 11° |
| 2026-04-23 09:33 | 18.56577 | 99.20105 | 15189 ft | 347 kts | 11° |
| 2026-04-23 09:33 | 18.58931 | 99.20659 | 14792 ft | 345 kts | 7° |
| 2026-04-23 09:34 | 18.61313 | 99.20827 | 14322 ft | 344 kts | 358° |
| 2026-04-23 09:34 | 18.63712 | 99.20842 | 13803 ft | 345 kts | 358° |
| 2026-04-23 09:34 | 18.66116 | 99.20848 | 13385 ft | 344 kts | 358° |
| 2026-04-23 09:34 | 18.67685 | 99.20851 | 12997 ft | 339 kts | 358° |
| 2026-04-23 09:35 | 18.70013 | 99.20856 | 12398 ft | 331 kts | 358° |
| 2026-04-23 09:35 | 18.73086 | 99.20862 | 11314 ft | 332 kts | 358° |
| 2026-04-23 09:35 | 18.75331 | 99.20869 | 11138 ft | 312 kts | 358° |
| 2026-04-23 09:35 | 18.77434 | 99.20878 | 11004 ft | 292 kts | 358° |
| 2026-04-23 09:36 | 18.79413 | 99.20890 | 10762 ft | 279 kts | 358° |
| 2026-04-23 09:36 | 18.80713 | 99.20898 | 10472 ft | 276 kts | 358° |
| 2026-04-23 09:36 | 18.82595 | 99.20905 | 9987 ft | 273 kts | 358° |
| 2026-04-23 09:36 | 18.84489 | 99.20910 | 9515 ft | 270 kts | 358° |
| 2026-04-23 09:37 | 18.86351 | 99.20913 | 9251 ft | 267 kts | 358° |
| 2026-04-23 09:37 | 18.88211 | 99.20917 | 9034 ft | 267 kts | 359° |
| 2026-04-23 09:37 | 18.90072 | 99.20924 | 8808 ft | 269 kts | 359° |
| 2026-04-23 09:37 | 18.91934 | 99.20932 | 8569 ft | 267 kts | 359° |
| 2026-04-23 09:38 | 18.93783 | 99.20942 | 8357 ft | 266 kts | 359° |
| 2026-04-23 09:38 | 18.95628 | 99.20952 | 8127 ft | 263 kts | 358° |
| 2026-04-23 09:38 | 18.97462 | 99.20962 | 8072 ft | 264 kts | 358° |
| 2026-04-23 09:38 | 18.99299 | 99.20967 | 7990 ft | 265 kts | 358° |
| 2026-04-23 09:39 | 19.01140 | 99.20969 | 7864 ft | 264 kts | 358° |
| 2026-04-23 09:39 | 19.02934 | 99.20687 | 7738 ft | 260 kts | 334° |
| 2026-04-23 09:39 | 19.04330 | 99.19547 | 7624 ft | 254 kts | 303° |
| 2026-04-23 09:39 | 19.04975 | 99.17843 | 7582 ft | 251 kts | 274° |
| 2026-04-23 09:40 | 19.05018 | 99.15990 | 7586 ft | 254 kts | 269° |
| 2026-04-23 09:40 | 19.05024 | 99.14127 | 7590 ft | 253 kts | 269° |
| 2026-04-23 09:40 | 19.05022 | 99.12265 | 7602 ft | 254 kts | 269° |
| 2026-04-23 09:40 | 19.05022 | 99.10386 | 7363 ft | 257 kts | 269° |
| 2026-04-23 09:41 | 19.05026 | 99.08504 | 7024 ft | 255 kts | 269° |
| 2026-04-23 09:41 | 19.05029 | 99.06641 | 6706 ft | 252 kts | 269° |
| 2026-04-23 09:41 | 19.05032 | 99.04797 | 6399 ft | 250 kts | 269° |
| 2026-04-23 09:41 | 19.05036 | 99.02969 | 6095 ft | 248 kts | 269° |
| 2026-04-23 09:42 | 19.05039 | 99.01151 | 5791 ft | 247 kts | 269° |
| 2026-04-23 09:42 | 19.05040 | 98.99365 | 5622 ft | 239 kts | 268° |
| 2026-04-23 09:42 | 19.04675 | 98.97692 | 5493 ft | 235 kts | 237° |
| 2026-04-23 09:42 | 19.04173 | 98.97035 | 5431 ft | 234 kts | 220° |
| 2026-04-23 09:47 | 19.03522 | 98.96585 | 5372 ft | 232 kts | 201° |
| 2026-04-23 09:47 | 19.01935 | 98.96339 | 5244 ft | 234 kts | 180° |
| 2026-04-23 09:48 | 19.00303 | 98.96344 | 5120 ft | 236 kts | 180° |
| 2026-04-23 09:48 | 18.98656 | 98.96348 | 4867 ft | 236 kts | 180° |
| 2026-04-23 09:48 | 18.97032 | 98.96351 | 4575 ft | 229 kts | 180° |
| 2026-04-23 09:48 | 18.95463 | 98.96350 | 4304 ft | 221 kts | 180° |
| 2026-04-23 09:49 | 18.93948 | 98.96348 | 4055 ft | 214 kts | 180° |
| 2026-04-23 09:49 | 18.92484 | 98.96345 | 3802 ft | 208 kts | 180° |
| 2026-04-23 09:49 | 18.91057 | 98.96339 | 3533 ft | 202 kts | 180° |
| 2026-04-23 09:49 | 18.89673 | 98.96335 | 3276 ft | 196 kts | 180° |
| 2026-04-23 09:50 | 18.88343 | 98.96329 | 3013 ft | 186 kts | 180° |
| 2026-04-23 09:50 | 18.87084 | 98.96330 | 2784 ft | 175 kts | 181° |
| 2026-04-23 09:50 | 18.85896 | 98.96328 | 2547 ft | 166 kts | 181° |
| 2026-04-23 09:50 | 18.84766 | 98.96325 | 2324 ft | 158 kts | 182° |
| 2026-04-23 09:51 | 18.83687 | 98.96320 | 2077 ft | 153 kts | 183° |
| 2026-04-23 09:51 | 18.82639 | 98.96317 | 1927 ft | 150 kts | 182° |
| 2026-04-23 09:51 | 18.81577 | 98.96311 | 1742 ft | 154 kts | 181° |
| 2026-04-23 09:51 | 18.80498 | 98.96306 | 1545 ft | 155 kts | 182° |
| 2026-04-23 09:52 | 18.79434 | 98.96303 | 1337 ft | 155 kts | 181° |
| 2026-04-23 09:52 | 18.78357 | 98.96292 | 1105 ft | 154 kts | 180° |
| 2026-04-23 09:52 | 18.77330 | 98.96294 | 1033 ft | 136 kts | 181° |
| 2026-04-23 09:52 | 18.76556 | 98.96288 | 1032 ft | 86 kts | 180° |
| 2026-04-23 09:53 | 18.76225 | 98.96288 | 1032 ft | 14 kts | 176° |
| 2026-04-23 09:53 | 18.76188 | 98.96363 | 1032 ft | 12 kts | 91° |
| 2026-04-23 09:53 | 18.76189 | 98.96441 | 1032 ft | 9 kts | 89° |
| 2026-04-23 09:53 | 18.76197 | 98.96501 | 1032 ft | 7 kts | 64° |
| 2026-04-23 09:54 | 18.76238 | 98.96516 | 1032 ft | 6 kts | 0° |
| 2026-04-23 09:54 | 18.76275 | 98.96516 | 1032 ft | 5 kts | 0° |
| 2026-04-23 09:54 | 18.76328 | 98.96516 | 1032 ft | 12 kts | 360° |
| 2026-04-23 09:54 | 18.76434 | 98.96516 | 1032 ft | 16 kts | 359° |
| 2026-04-23 09:55 | 18.76536 | 98.96520 | 1032 ft | 11 kts | 20° |
| 2026-04-23 09:55 | 18.76569 | 98.96580 | 1032 ft | 9 kts | 89° |
| 2026-04-23 09:55 | 18.76589 | 98.96635 | 1032 ft | 8 kts | 42° |
| 2026-04-23 09:55 | 18.76634 | 98.96646 | 1032 ft | 6 kts | 2° |
| 2026-04-23 09:56 | 18.76693 | 98.96647 | 1032 ft | 11 kts | 360° |
| 2026-04-23 09:56 | 18.76770 | 98.96647 | 1032 ft | 10 kts | 0° |
| 2026-04-23 09:56 | 18.76827 | 98.96647 | 1032 ft | 7 kts | 2° |
| 2026-04-23 09:56 | 18.76844 | 98.96681 | 1032 ft | 5 kts | 88° |
| 2026-04-23 09:57 | 18.76843 | 98.96713 | 1032 ft | 4 kts | 90° |
| 2026-04-23 09:57 | 18.76844 | 98.96737 | 1032 ft | 1 kts | 89° |